Airfield :
LOGIN :

Register | Disclaimer

   EN    FR    IT 

 










Legend :    VFR   Marginal VFR   IFR   Intensive IFR   Very Intensive IFR
Visi :
Ceiling :
>= 8 km
>= 3000ft
5 to 8 km
1000 to 3000 ft
1500m to 5 km
500 to 1000 ft
800 to 1500m
200 to 500 ft
< 800m
< 200 ft
Symbols :   Thunderstorms  Fog  Heavy snow  Heavy precipitations  Wind > 20 kt
SIGMETs :     Misc.  Thunderstorms  Icing  Turbulence  Mountain Waves  Volcanic Ashes






- Airport Elevation : 242 ft
- IATA code : DUB


EIDW - Dublin

CURRENT METAR :
  • 020830Z 30009KT 9999 SCT010 BKN014 BKN018 12/11 Q1011 NOSIG

EXPIRED METARs :
  • 020800Z 29010KT 9999 FEW006 SCT009 BKN012 12/11 Q1011 NOSIG
  • 020730Z 30008KT 270V330 9999 FEW006 SCT009 BKN012 12/11 Q1010 NOSIG
  • 020700Z 30008KT 9999 FEW006 SCT009 BKN012 12/10 Q1010 NOSIG
  • 020630Z 30009KT 9999 FEW007 BKN011 11/10 Q1010 NOSIG
  • 020600Z 30009KT 9999 FEW005 BKN010 11/10 Q1010 NOSIG

TAF TAF EIDW
Valid from the 02 at 06:00 until the 03 at 06:00 UTC


020500Z 0206/0306 31008KT 9999 SCT010 BKN045
TEMPO 0206/0209 BKN010
PROB30
TEMPO 0206/0209 4000 -DZ BKN007
BECMG 0207/0209 28009KT
PROB30
TEMPO 0209/0211 BKN012
BECMG 0220/0222 24008KT
BECMG 0301/0303 23013KT
TEMPO 0303/0306 5000 -RA BKN014
BECMG 0304/0306 23018G28KT



MET'MAP, your aeronautical weather chart ! - Copyright ORBIFLY December 2007 - Disclaimer

ORBIFLY MET'MAP TEAM :

Programming & Development : Alexandra Zaïnal
Concept & original design : Baudouin d'Aumeries
Assistance for programming : Marc-Olivier Méhu
Technical & hardware support : Manuel Goepfert

Contact : metmap@orbifly.com




SOURCES & CREDITS :

   NOAA